Time;durP1;ratioP1;P1;durP2;ratioP2;P2;SDS_P1;SDS_P2;PMS_P1;PMS_P2;Temp;Humidity;BMP_temperature;BMP_pressure;BME280_temperature;BME280_humidity;BME280_pressure;Samples;Min_cycle;Max_cycle;Signal;HPM_P1;HPM_P2
2023/11/12 00:01:40;;;;;;;14.60;13.10;;;;;;;;;;5060847;28;20792;-79
2023/11/12 00:04:25;;;;;;;16.60;12.03;;;;;;;;;;5061356;28;20803;-79
2023/11/12 00:07:12;;;;;;;13.30;11.80;;;;;;;;;;5048652;28;20820;-79
2023/11/12 00:09:58;;;;;;;13.43;11.03;;;;;;;;;;5059601;28;20833;-79
2023/11/12 00:12:43;;;;;;;13.17;11.80;;;;;;;;;;5061634;28;20512;-79
2023/11/12 00:15:28;;;;;;;12.53;11.33;;;;;;;;;;5056419;28;20445;-79
2023/11/12 00:18:13;;;;;;;11.90;10.83;;;;;;;;;;5049966;28;20465;-79
2023/11/12 00:20:59;;;;;;;12.53;11.43;;;;;;;;;;5063022;28;20807;-79
2023/11/12 00:23:45;;;;;;;12.37;11.20;;;;;;;;;;5061420;28;20441;-78
2023/11/12 00:26:30;;;;;;;12.90;11.70;;;;;;;;;;5061191;28;20461;-79
2023/11/12 00:29:16;;;;;;;11.60;10.50;;;;;;;;;;5048325;28;20862;-78
2023/11/12 00:32:03;;;;;;;12.17;11.03;;;;;;;;;;5061749;28;20433;-79
2023/11/12 00:34:49;;;;;;;12.33;11.13;;;;;;;;;;5038875;28;20441;-79
2023/11/12 00:37:34;;;;;;;11.27;10.37;;;;;;;;;;5060476;28;20878;-79
2023/11/12 00:40:21;;;;;;;11.87;10.67;;;;;;;;;;5048160;28;20843;-79
2023/11/12 00:43:08;;;;;;;11.50;10.30;;;;;;;;;;5036765;28;20814;-79
2023/11/12 00:45:56;;;;;;;12.60;11.40;;;;;;;;;;5045163;28;20626;-79
2023/11/12 00:48:43;;;;;;;11.30;10.00;;;;;;;;;;5046308;28;20500;-79
2023/11/12 00:51:29;;;;;;;11.03;9.70;;;;;;;;;;5047953;28;20847;-79
2023/11/12 00:54:14;;;;;;;11.03;10.00;;;;;;;;;;5053384;28;20804;-80
2023/11/12 00:57:01;;;;;;;11.57;10.40;;;;;;;;;;5043686;28;20459;-79
2023/11/12 00:59:46;;;;;;;11.27;10.13;;;;;;;;;;5053499;28;20882;-79
2023/11/12 01:02:31;;;;;;;15.37;11.37;;;;;;;;;;5058629;28;20441;-79
2023/11/12 01:05:17;;;;;;;13.10;11.60;;;;;;;;;;5035739;28;20506;-79
2023/11/12 01:08:03;;;;;;;13.07;11.87;;;;;;;;;;5058291;28;20511;-79
2023/11/12 01:10:48;;;;;;;13.93;12.63;;;;;;;;;;5042788;28;20983;-79
2023/11/12 01:13:35;;;;;;;13.80;11.63;;;;;;;;;;5041862;28;21052;-80
2023/11/12 01:16:21;;;;;;;10.73;9.70;;;;;;;;;;5046860;28;20462;-80
2023/11/12 01:19:06;;;;;;;11.90;10.70;;;;;;;;;;5053202;28;20433;-80
2023/11/12 01:21:52;;;;;;;10.80;9.70;;;;;;;;;;5034721;28;20843;-80
2023/11/12 01:24:37;;;;;;;11.83;10.73;;;;;;;;;;5056474;28;20433;-79
2023/11/12 01:27:28;;;;;;;11.57;10.47;;;;;;;;;;5042077;28;20532;-80
2023/11/12 01:30:15;;;;;;;13.40;9.90;;;;;;;;;;5046881;28;20429;-81
2023/11/12 01:33:02;;;;;;;11.10;10.00;;;;;;;;;;5037619;28;20807;-80
2023/11/12 01:35:48;;;;;;;11.63;10.47;;;;;;;;;;5039825;28;20435;-81
2023/11/12 01:38:33;;;;;;;10.60;9.60;;;;;;;;;;5042284;28;20449;-80
2023/11/12 01:41:21;;;;;;;10.93;9.90;;;;;;;;;;5035421;28;20810;-80
2023/11/12 01:44:08;;;;;;;13.10;11.10;;;;;;;;;;5056972;28;20849;-80
2023/11/12 01:46:55;;;;;;;11.17;10.17;;;;;;;;;;5040502;28;20485;-80
2023/11/12 01:49:42;;;;;;;11.13;10.13;;;;;;;;;;5032109;28;20437;-79
2023/11/12 01:52:28;;;;;;;11.20;10.10;;;;;;;;;;5037294;28;20812;-80
2023/11/12 01:55:13;;;;;;;12.37;11.17;;;;;;;;;;5051936;28;20484;-80
2023/11/12 01:58:04;;;;;;;11.83;10.73;;;;;;;;;;5043916;28;20800;-80
2023/11/12 02:00:52;;;;;;;11.23;10.10;;;;;;;;;;5049216;28;20791;-80
2023/11/12 02:03:40;;;;;;;12.20;11.00;;;;;;;;;;5048629;28;20808;-80
2023/11/12 02:06:25;;;;;;;11.37;10.20;;;;;;;;;;5034317;28;20457;-80
2023/11/12 02:09:13;;;;;;;12.03;10.87;;;;;;;;;;5044239;28;20862;-80
2023/11/12 02:11:58;;;;;;;13.10;11.63;;;;;;;;;;5036284;28;20471;-80
2023/11/12 02:14:44;;;;;;;11.70;10.13;;;;;;;;;;5050211;28;20513;-80
2023/11/12 02:17:32;;;;;;;13.23;11.80;;;;;;;;;;5043298;28;20452;-80
2023/11/12 02:20:19;;;;;;;11.67;10.43;;;;;;;;;;5041875;28;20452;-80
2023/11/12 02:23:07;;;;;;;13.13;11.63;;;;;;;;;;5033048;28;20434;-81
2023/11/12 02:25:55;;;;;;;14.33;12.40;;;;;;;;;;5038680;28;20441;-80
2023/11/12 02:28:40;;;;;;;12.67;11.47;;;;;;;;;;5056932;28;20461;-80
2023/11/12 02:31:30;;;;;;;12.23;11.03;;;;;;;;;;5046509;28;20889;-79
2023/11/12 02:34:18;;;;;;;12.90;11.60;;;;;;;;;;5034897;28;20461;-80
2023/11/12 02:37:03;;;;;;;15.23;12.37;;;;;;;;;;5060282;28;20861;-79
2023/11/12 02:39:55;;;;;;;12.40;11.20;;;;;;;;;;5039676;28;20795;-79
2023/11/12 02:42:49;;;;;;;13.27;11.70;;;;;;;;;;5045704;28;20460;-79
2023/11/12 02:45:34;;;;;;;14.57;12.17;;;;;;;;;;5053256;28;20452;-79
2023/11/12 02:48:20;;;;;;;14.33;12.93;;;;;;;;;;5042917;28;20526;-79
2023/11/12 02:51:09;;;;;;;14.30;12.90;;;;;;;;;;5053427;28;20792;-80
2023/11/12 02:53:56;;;;;;;13.93;12.00;;;;;;;;;;5060630;28;20765;-81
2023/11/12 02:56:42;;;;;;;13.60;11.77;;;;;;;;;;5039999;28;20517;-80
2023/11/12 02:59:28;;;;;;;13.30;11.90;;;;;;;;;;5040435;28;20789;-80
2023/11/12 03:02:13;;;;;;;11.90;10.80;;;;;;;;;;5060518;28;20509;-80
2023/11/12 03:04:59;;;;;;;14.27;12.97;;;;;;;;;;5058110;28;20792;-79
2023/11/12 03:07:44;;;;;;;14.10;12.70;;;;;;;;;;5047525;28;20842;-79
2023/11/12 03:10:29;;;;;;;13.63;12.00;;;;;;;;;;5039643;28;20491;-80
2023/11/12 03:13:14;;;;;;;14.77;13.10;;;;;;;;;;5059104;28;20446;-80
2023/11/12 03:16:01;;;;;;;12.30;11.13;;;;;;;;;;5047152;28;20425;-80
2023/11/12 03:18:49;;;;;;;13.80;12.47;;;;;;;;;;5041991;28;20444;-79
2023/11/12 03:21:34;;;;;;;13.07;11.73;;;;;;;;;;5058730;28;20440;-79
2023/11/12 03:24:20;;;;;;;12.97;11.73;;;;;;;;;;5067579;28;20440;-79
2023/11/12 03:27:05;;;;;;;13.60;12.20;;;;;;;;;;5065448;28;20480;-79
2023/11/12 03:29:50;;;;;;;13.00;11.70;;;;;;;;;;5048818;28;20425;-80
2023/11/12 03:32:38;;;;;;;12.73;11.47;;;;;;;;;;5062213;28;20448;-79
2023/11/12 03:35:23;;;;;;;12.30;11.00;;;;;;;;;;5068332;28;20504;-80
2023/11/12 03:38:08;;;;;;;13.30;11.67;;;;;;;;;;5051547;28;20464;-80
2023/11/12 03:40:55;;;;;;;13.50;11.50;;;;;;;;;;5056553;28;20424;-81
2023/11/12 03:43:40;;;;;;;12.80;11.50;;;;;;;;;;5051952;28;20471;-80
2023/11/12 03:46:25;;;;;;;11.30;10.20;;;;;;;;;;5068402;28;20453;-80
2023/11/12 03:49:12;;;;;;;11.63;10.50;;;;;;;;;;5068158;28;20483;-80
2023/11/12 03:51:58;;;;;;;11.93;10.73;;;;;;;;;;5044286;28;20532;-80
2023/11/12 03:54:46;;;;;;;11.33;10.33;;;;;;;;;;5055669;28;20500;-79
2023/11/12 03:57:31;;;;;;;14.83;10.50;;;;;;;;;;5070471;28;20442;-79
2023/11/12 04:00:16;;;;;;;11.13;10.13;;;;;;;;;;5063988;28;20493;-79
2023/11/12 04:03:02;;;;;;;10.33;9.40;;;;;;;;;;5047394;28;20422;-80
2023/11/12 04:05:49;;;;;;;10.83;9.67;;;;;;;;;;5051896;28;20447;-80
2023/11/12 04:08:34;;;;;;;11.30;10.23;;;;;;;;;;5060573;28;20453;-79
2023/11/12 04:11:20;;;;;;;11.20;9.77;;;;;;;;;;5053592;28;20463;-80
2023/11/12 04:14:07;;;;;;;11.43;9.67;;;;;;;;;;5043987;28;20519;-79
2023/11/12 04:16:52;;;;;;;10.37;9.33;;;;;;;;;;5054393;28;20468;-79
2023/11/12 04:19:39;;;;;;;11.80;9.40;;;;;;;;;;5054008;28;20441;-79
2023/11/12 04:22:26;;;;;;;11.17;9.87;;;;;;;;;;5063446;28;20428;-80
2023/11/12 04:25:11;;;;;;;10.33;9.43;;;;;;;;;;5052895;28;20476;-80
2023/11/12 04:27:57;;;;;;;11.27;10.10;;;;;;;;;;5064563;28;20575;-79
2023/11/12 04:30:42;;;;;;;11.10;10.10;;;;;;;;;;5042908;28;20438;-79
2023/11/12 04:33:29;;;;;;;11.90;9.07;;;;;;;;;;5048482;28;20523;-79
2023/11/12 04:36:14;;;;;;;9.83;9.03;;;;;;;;;;5053368;28;20458;-80
2023/11/12 04:39:01;;;;;;;11.33;10.20;;;;;;;;;;5054161;28;20429;-79
2023/11/12 04:41:46;;;;;;;11.80;10.60;;;;;;;;;;5043380;28;20434;-80
2023/11/12 04:44:31;;;;;;;10.70;9.23;;;;;;;;;;5060980;28;20508;-79
2023/11/12 04:47:17;;;;;;;10.93;9.83;;;;;;;;;;5044786;28;20453;-79
2023/11/12 04:50:02;;;;;;;13.13;10.27;;;;;;;;;;5052693;28;20461;-80
2023/11/12 04:52:48;;;;;;;15.90;10.37;;;;;;;;;;5040991;28;20441;-79
2023/11/12 04:55:34;;;;;;;12.80;10.37;;;;;;;;;;5045268;28;20526;-80
2023/11/12 04:58:20;;;;;;;10.27;9.27;;;;;;;;;;5057407;28;20518;-80
2023/11/12 05:01:06;;;;;;;9.77;8.83;;;;;;;;;;5056142;28;20838;-80
2023/11/12 05:03:51;;;;;;;10.03;9.03;;;;;;;;;;5039542;28;20909;-80
2023/11/12 05:06:37;;;;;;;11.73;9.13;;;;;;;;;;5060779;28;20471;-79
2023/11/12 05:09:22;;;;;;;9.43;8.50;;;;;;;;;;5064334;28;20458;-80
2023/11/12 05:12:09;;;;;;;9.67;8.47;;;;;;;;;;5043121;28;20433;-80
2023/11/12 05:14:55;;;;;;;10.73;9.23;;;;;;;;;;5042884;28;20496;-80
2023/11/12 05:17:40;;;;;;;9.43;8.37;;;;;;;;;;5040294;28;20449;-80
2023/11/12 05:20:25;;;;;;;9.80;8.80;;;;;;;;;;5058093;28;20442;-80
2023/11/12 05:23:11;;;;;;;9.20;8.30;;;;;;;;;;5060409;28;20566;-79
2023/11/12 05:25:58;;;;;;;9.20;8.40;;;;;;;;;;5051023;28;20540;-79
2023/11/12 05:28:45;;;;;;;8.80;7.87;;;;;;;;;;5059742;28;20464;-79
2023/11/12 05:31:32;;;;;;;8.27;7.33;;;;;;;;;;5059566;28;20937;-79
2023/11/12 05:34:17;;;;;;;8.70;7.63;;;;;;;;;;5043805;28;20441;-80
2023/11/12 05:37:03;;;;;;;8.90;8.10;;;;;;;;;;5063070;28;20472;-80
2023/11/12 05:39:48;;;;;;;9.00;8.17;;;;;;;;;;5051584;28;20512;-79
2023/11/12 05:42:33;;;;;;;9.70;8.10;;;;;;;;;;5064184;28;20441;-79
2023/11/12 05:45:19;;;;;;;10.73;8.50;;;;;;;;;;5057128;28;20452;-80
2023/11/12 05:48:05;;;;;;;8.93;8.13;;;;;;;;;;5052571;28;20520;-80
2023/11/12 05:50:51;;;;;;;9.13;7.90;;;;;;;;;;5054383;28;20836;-79
2023/11/12 05:53:36;;;;;;;8.60;7.50;;;;;;;;;;5046620;28;20437;-80
2023/11/12 05:56:22;;;;;;;11.57;7.70;;;;;;;;;;5039385;28;20961;-80
2023/11/12 05:59:07;;;;;;;8.10;7.30;;;;;;;;;;5050189;28;20834;-79
2023/11/12 06:01:54;;;;;;;11.43;8.50;;;;;;;;;;5053769;28;20525;-80
2023/11/12 06:04:39;;;;;;;9.53;8.60;;;;;;;;;;5057806;28;20452;-80
2023/11/12 06:07:24;;;;;;;11.30;8.43;;;;;;;;;;5042961;28;20461;-79
2023/11/12 06:10:10;;;;;;;7.87;7.07;;;;;;;;;;5041743;28;20476;-80
2023/11/12 06:12:55;;;;;;;9.17;8.30;;;;;;;;;;5053396;28;20448;-79
2023/11/12 06:15:40;;;;;;;9.20;8.30;;;;;;;;;;5056400;28;20869;-80
2023/11/12 06:18:27;;;;;;;9.17;8.33;;;;;;;;;;5055228;28;20429;-79
2023/11/12 06:21:13;;;;;;;9.57;8.67;;;;;;;;;;5037877;28;20454;-80
2023/11/12 06:23:58;;;;;;;9.70;7.87;;;;;;;;;;5072799;22;20437;-79
2023/11/12 06:26:45;;;;;;;9.97;8.77;;;;;;;;;;5061679;28;20449;-78
2023/11/12 06:29:30;;;;;;;9.40;8.47;;;;;;;;;;5054306;28;20835;-78
2023/11/12 06:32:16;;;;;;;9.73;7.70;;;;;;;;;;5051471;28;20802;-78
2023/11/12 06:35:03;;;;;;;9.90;8.90;;;;;;;;;;5054625;28;20804;-78
2023/11/12 06:37:48;;;;;;;9.47;8.57;;;;;;;;;;5031826;28;20854;-78
2023/11/12 06:40:33;;;;;;;8.77;7.87;;;;;;;;;;5040151;28;20809;-78
2023/11/12 06:43:18;;;;;;;10.80;8.50;;;;;;;;;;5040422;28;20839;-78
2023/11/12 06:46:04;;;;;;;9.90;8.10;;;;;;;;;;5037978;28;20813;-78
2023/11/12 06:48:49;;;;;;;10.87;8.10;;;;;;;;;;5032371;28;20893;-77
2023/11/12 06:51:36;;;;;;;9.03;8.13;;;;;;;;;;5049764;28;20807;-78
2023/11/12 06:54:21;;;;;;;10.00;9.00;;;;;;;;;;5040294;28;20870;-77
2023/11/12 06:57:06;;;;;;;9.10;7.97;;;;;;;;;;5041742;28;20839;-78
2023/11/12 06:59:52;;;;;;;9.40;8.50;;;;;;;;;;5053561;28;20859;-78
2023/11/12 07:02:37;;;;;;;10.33;9.07;;;;;;;;;;5055476;28;20696;-78
2023/11/12 07:05:23;;;;;;;10.87;8.70;;;;;;;;;;5050058;28;20467;-78
2023/11/12 07:08:10;;;;;;;10.20;9.10;;;;;;;;;;5043411;28;20442;-78
2023/11/12 07:10:55;;;;;;;11.23;9.50;;;;;;;;;;5040921;28;20800;-78
2023/11/12 07:13:40;;;;;;;9.97;8.97;;;;;;;;;;5040330;28;20733;-78
2023/11/12 07:16:25;;;;;;;13.97;9.90;;;;;;;;;;5056350;28;20820;-78
2023/11/12 07:19:11;;;;;;;11.40;9.20;;;;;;;;;;5026356;28;20988;-79
2023/11/12 07:21:58;;;;;;;9.97;8.93;;;;;;;;;;5036084;28;20802;-78
2023/11/12 07:24:45;;;;;;;11.90;10.00;;;;;;;;;;5043961;28;20819;-79
2023/11/12 07:27:31;;;;;;;10.23;9.23;;;;;;;;;;5037945;28;20805;-78
2023/11/12 07:30:17;;;;;;;10.23;9.23;;;;;;;;;;5039957;28;20466;-79
2023/11/12 07:33:02;;;;;;;14.20;9.70;;;;;;;;;;5039864;28;20441;-78
2023/11/12 07:35:48;;;;;;;10.63;9.43;;;;;;;;;;5038617;28;20454;-78
2023/11/12 07:38:33;;;;;;;14.20;9.90;;;;;;;;;;5049279;28;20435;-79
2023/11/12 07:41:22;;;;;;;10.33;9.17;;;;;;;;;;5040001;28;20816;-79
2023/11/12 07:44:07;;;;;;;9.80;8.80;;;;;;;;;;5036158;28;20910;-78
2023/11/12 07:46:53;;;;;;;11.00;9.57;;;;;;;;;;5050952;28;20437;-79
2023/11/12 07:49:38;;;;;;;10.47;9.37;;;;;;;;;;5042138;28;20842;-79
2023/11/12 07:52:23;;;;;;;10.70;9.60;;;;;;;;;;5050004;28;20858;-79
2023/11/12 07:55:09;;;;;;;10.80;9.77;;;;;;;;;;5042341;28;20461;-79
2023/11/12 07:57:56;;;;;;;10.33;9.33;;;;;;;;;;5052464;28;20438;-79
2023/11/12 08:00:41;;;;;;;10.30;9.30;;;;;;;;;;5037890;28;20811;-78
2023/11/12 08:03:26;;;;;;;9.47;8.57;;;;;;;;;;5040908;28;20433;-78
2023/11/12 08:06:13;;;;;;;13.30;9.20;;;;;;;;;;5034830;28;20441;-79
2023/11/12 08:09:00;;;;;;;10.87;9.77;;;;;;;;;;5051073;28;20437;-79
2023/11/12 08:11:45;;;;;;;10.40;8.97;;;;;;;;;;5051748;28;20832;-79
2023/11/12 08:14:31;;;;;;;9.20;8.30;;;;;;;;;;5054308;28;20834;-79
2023/11/12 08:17:17;;;;;;;10.80;9.30;;;;;;;;;;5044123;28;20918;-78
2023/11/12 08:20:04;;;;;;;9.13;7.80;;;;;;;;;;5053356;28;20816;-79
2023/11/12 08:22:49;;;;;;;10.90;8.87;;;;;;;;;;5044312;28;20493;-79
2023/11/12 08:25:35;;;;;;;9.97;8.50;;;;;;;;;;5052785;28;20457;-78
2023/11/12 08:28:23;;;;;;;8.83;7.57;;;;;;;;;;5054634;28;20446;-78
2023/11/12 08:31:10;;;;;;;7.90;7.17;;;;;;;;;;5054109;28;20810;-78
2023/11/12 08:33:56;;;;;;;9.30;7.77;;;;;;;;;;5051223;28;20826;-78
2023/11/12 08:36:41;;;;;;;10.07;8.53;;;;;;;;;;5046552;28;20875;-78
2023/11/12 08:39:27;;;;;;;9.90;8.90;;;;;;;;;;5019859;28;20841;-78
2023/11/12 08:42:12;;;;;;;9.40;8.50;;;;;;;;;;5043770;28;20789;-79
2023/11/12 08:44:58;;;;;;;9.17;8.27;;;;;;;;;;5048390;28;20454;-80
2023/11/12 08:47:45;;;;;;;8.20;7.40;;;;;;;;;;5033064;28;20870;-78
2023/11/12 08:50:30;;;;;;;10.67;8.77;;;;;;;;;;5037404;28;20816;-78
2023/11/12 08:53:15;;;;;;;9.20;7.33;;;;;;;;;;5046260;28;20807;-78
2023/11/12 08:56:00;;;;;;;12.27;8.40;;;;;;;;;;5049714;28;20465;-79
2023/11/12 08:58:45;;;;;;;7.30;6.60;;;;;;;;;;5049004;28;20882;-78
2023/11/12 09:01:34;;;;;;;6.80;6.17;;;;;;;;;;5050242;28;20444;-78
2023/11/12 09:04:20;;;;;;;7.53;6.83;;;;;;;;;;5040402;28;20460;-78
2023/11/12 09:07:07;;;;;;;10.03;7.10;;;;;;;;;;5050056;28;20819;-78
2023/11/12 09:09:52;;;;;;;8.60;6.63;;;;;;;;;;5050139;28;20928;-78
2023/11/12 09:12:37;;;;;;;11.00;7.00;;;;;;;;;;5046803;28;20819;-79
2023/11/12 09:15:22;;;;;;;9.20;7.10;;;;;;;;;;5040564;28;20874;-79
2023/11/12 09:18:19;;;;;;;9.43;7.10;;;;;;;;;;5114435;27;20514;-79
2023/11/12 09:21:05;;;;;;;7.63;6.83;;;;;;;;;;5114741;28;20439;-79
2023/11/12 09:23:50;;;;;;;7.57;6.93;;;;;;;;;;5114006;28;20878;-79
2023/11/12 09:26:35;;;;;;;9.90;6.57;;;;;;;;;;5113383;28;20862;-79
2023/11/12 09:29:22;;;;;;;6.23;5.70;;;;;;;;;;5102985;28;20781;-80
2023/11/12 09:32:07;;;;;;;6.70;6.10;;;;;;;;;;5115598;28;20438;-80
2023/11/12 09:34:54;;;;;;;7.10;6.37;;;;;;;;;;5121582;28;20457;-79
2023/11/12 09:37:39;;;;;;;6.73;6.03;;;;;;;;;;5124477;27;20461;-79
2023/11/12 09:40:29;;;;;;;7.30;6.60;;;;;;;;;;5111402;28;20435;-80
2023/11/12 09:43:15;;;;;;;7.30;6.60;;;;;;;;;;5121079;28;20502;-80
2023/11/12 09:46:00;;;;;;;7.03;6.43;;;;;;;;;;5119668;28;20454;-80
2023/11/12 09:48:45;;;;;;;7.43;6.40;;;;;;;;;;5114148;28;20817;-80
2023/11/12 09:51:34;;;;;;;7.37;6.40;;;;;;;;;;5118476;28;20444;-80
2023/11/12 09:54:19;;;;;;;7.17;6.57;;;;;;;;;;5111078;28;20454;-80
2023/11/12 09:57:04;;;;;;;6.77;6.17;;;;;;;;;;5113733;28;20466;-79
2023/11/12 09:59:51;;;;;;;7.10;6.40;;;;;;;;;;5115575;28;20667;-80
2023/11/12 10:02:37;;;;;;;7.73;6.80;;;;;;;;;;5125914;27;20446;-77
2023/11/12 10:05:23;;;;;;;6.67;6.07;;;;;;;;;;5133452;28;20457;-80
2023/11/12 10:08:10;;;;;;;7.30;6.60;;;;;;;;;;5112975;28;21084;-79
2023/11/12 10:11:13;;;;;;;7.20;6.50;;;;;;;;;;5122020;28;20492;-80
2023/11/12 10:13:58;;;;;;;7.63;6.93;;;;;;;;;;5123006;28;21063;-80
2023/11/12 10:16:44;;;;;;;8.47;7.57;;;;;;;;;;5124688;28;20836;-80
2023/11/12 10:19:29;;;;;;;7.60;6.77;;;;;;;;;;5118261;28;20800;-80
2023/11/12 10:22:14;;;;;;;7.63;6.83;;;;;;;;;;5114931;28;20442;-80
2023/11/12 10:25:03;;;;;;;7.70;6.90;;;;;;;;;;5117170;28;20457;-80
2023/11/12 10:27:52;;;;;;;9.27;5.83;;;;;;;;;;5113243;28;20834;-80
2023/11/12 10:30:38;;;;;;;6.20;5.60;;;;;;;;;;5100866;28;20440;-79
2023/11/12 10:33:24;;;;;;;5.97;5.47;;;;;;;;;;5103982;28;20830;-80
2023/11/12 10:36:11;;;;;;;6.30;5.70;;;;;;;;;;5108028;28;21939;-80
2023/11/12 10:39:02;;;;;;;5.67;5.17;;;;;;;;;;5101656;28;20868;-80
2023/11/12 10:41:50;;;;;;;6.07;5.47;;;;;;;;;;5103600;28;20894;-80
2023/11/12 10:44:38;;;;;;;6.87;6.27;;;;;;;;;;5103520;28;20819;-80
2023/11/12 10:47:24;;;;;;;7.77;5.93;;;;;;;;;;5105337;28;20852;-80
2023/11/12 10:50:09;;;;;;;6.80;5.60;;;;;;;;;;5112726;28;20438;-80
2023/11/12 10:52:55;;;;;;;7.50;6.03;;;;;;;;;;5106177;28;20866;-79
2023/11/12 10:55:41;;;;;;;6.53;5.90;;;;;;;;;;5099581;28;20785;-80
2023/11/12 10:58:29;;;;;;;6.53;5.70;;;;;;;;;;5094159;28;20717;-79
2023/11/12 11:01:16;;;;;;;7.10;5.67;;;;;;;;;;5102701;28;20428;-80
2023/11/12 11:04:05;;;;;;;6.70;5.97;;;;;;;;;;5100227;28;20796;-77
2023/11/12 11:06:50;;;;;;;6.77;5.80;;;;;;;;;;5101446;28;20438;-78
2023/11/12 11:09:35;;;;;;;5.60;5.10;;;;;;;;;;5094039;28;20496;-78
2023/11/12 11:12:22;;;;;;;5.50;5.00;;;;;;;;;;5099911;28;20835;-79
2023/11/12 11:15:26;;;;;;;5.90;5.50;;;;;;;;;;5100350;28;20504;-78
2023/11/12 11:18:45;;;;;;;6.50;4.93;;;;;;;;;;5099727;28;20555;-79
2023/11/12 11:21:31;;;;;;;6.13;4.77;;;;;;;;;;5094804;28;20439;-78
2023/11/12 11:24:42;;;;;;;5.10;4.67;;;;;;;;;;5099642;28;20459;-78
2023/11/12 11:27:28;;;;;;;5.47;4.90;;;;;;;;;;5095426;28;20800;-78
2023/11/12 11:30:14;;;;;;;6.73;4.87;;;;;;;;;;5101133;28;20470;-78
2023/11/12 11:33:03;;;;;;;5.77;4.20;;;;;;;;;;5101465;28;20761;-78
2023/11/12 11:35:48;;;;;;;6.57;5.23;;;;;;;;;;5101364;28;20481;-79
2023/11/12 11:38:36;;;;;;;5.43;4.90;;;;;;;;;;5095583;28;20521;-79
2023/11/12 11:41:21;;;;;;;5.10;4.40;;;;;;;;;;5096838;28;20442;-79
2023/11/12 11:44:41;;;;;;;4.87;4.37;;;;;;;;;;5096603;28;20459;-79
2023/11/12 11:47:27;;;;;;;4.53;4.13;;;;;;;;;;5098866;28;20453;-79
2023/11/12 11:50:31;;;;;;;4.83;3.80;;;;;;;;;;5103537;28;20765;-79
2023/11/12 11:53:17;;;;;;;4.20;3.60;;;;;;;;;;5108816;28;20895;-79
2023/11/12 11:56:05;;;;;;;6.03;3.90;;;;;;;;;;5108496;28;20451;-79
2023/11/12 11:58:50;;;;;;;4.00;3.10;;;;;;;;;;5101086;28;20467;-79
2023/11/12 12:01:42;;;;;;;4.93;3.50;;;;;;;;;;5098760;28;20431;-79
2023/11/12 12:04:27;;;;;;;4.63;3.67;;;;;;;;;;5110755;28;20790;-79
2023/11/12 12:07:20;;;;;;;6.37;3.90;;;;;;;;;;5107398;28;20431;-79
2023/11/12 12:10:07;;;;;;;6.80;3.90;;;;;;;;;;5095045;28;20701;-79
2023/11/12 12:12:54;;;;;;;6.00;3.47;;;;;;;;;;5091675;28;20930;-78
2023/11/12 12:15:45;;;;;;;4.33;3.93;;;;;;;;;;5088094;28;20458;-78
2023/11/12 12:18:30;;;;;;;5.00;4.40;;;;;;;;;;5094761;28;20462;-78
2023/11/12 12:21:17;;;;;;;5.10;3.27;;;;;;;;;;5097067;28;20431;-78
2023/11/12 12:24:03;;;;;;;4.63;3.63;;;;;;;;;;5097701;28;20883;-78
2023/11/12 12:26:48;;;;;;;3.73;3.43;;;;;;;;;;5092176;28;20435;-79
2023/11/12 12:29:37;;;;;;;3.80;3.50;;;;;;;;;;5091458;28;20471;-79
2023/11/12 12:32:22;;;;;;;4.13;3.73;;;;;;;;;;5095663;28;20768;-79
2023/11/12 12:35:07;;;;;;;3.30;3.00;;;;;;;;;;5095274;28;20459;-79
2023/11/12 12:38:06;;;;;;;4.73;3.00;;;;;;;;;;5097125;28;20455;-79
2023/11/12 12:41:00;;;;;;;4.73;3.40;;;;;;;;;;5091217;28;20431;-79
2023/11/12 12:43:47;;;;;;;4.23;3.60;;;;;;;;;;5092362;28;20459;-79
2023/11/12 12:46:45;;;;;;;5.13;3.40;;;;;;;;;;5089664;28;20455;-79
2023/11/12 12:49:31;;;;;;;8.30;5.97;;;;;;;;;;5096513;28;20784;-79
2023/11/12 12:52:20;;;;;;;3.97;3.53;;;;;;;;;;5098270;28;20435;-79
2023/11/12 12:55:06;;;;;;;3.40;3.10;;;;;;;;;;5097623;28;20852;-79
2023/11/12 12:57:51;;;;;;;4.13;3.73;;;;;;;;;;5089833;28;20470;-79
2023/11/12 13:00:39;;;;;;;8.50;3.77;;;;;;;;;;5090267;28;20778;-79
2023/11/12 13:03:30;;;;;;;4.07;3.67;;;;;;;;;;5094648;28;20655;-79
2023/11/12 13:06:16;;;;;;;5.40;4.10;;;;;;;;;;5093753;28;20439;-79
2023/11/12 13:09:01;;;;;;;4.40;3.70;;;;;;;;;;5095577;28;20492;-79
2023/11/12 13:11:46;;;;;;;4.30;3.90;;;;;;;;;;5091075;28;20431;-79
2023/11/12 13:14:32;;;;;;;4.33;3.00;;;;;;;;;;5095373;28;20856;-79
2023/11/12 13:17:17;;;;;;;4.17;3.20;;;;;;;;;;5095401;28;20467;-79
2023/11/12 13:20:07;;;;;;;3.93;3.60;;;;;;;;;;5094900;28;20436;-79
2023/11/12 13:22:52;;;;;;;3.83;3.53;;;;;;;;;;5084255;28;20842;-79
2023/11/12 13:25:37;;;;;;;6.07;4.50;;;;;;;;;;5087531;28;20800;-79
2023/11/12 13:28:22;;;;;;;4.60;4.20;;;;;;;;;;5098226;28;20577;-79
2023/11/12 13:31:07;;;;;;;5.30;3.50;;;;;;;;;;5096456;28;20427;-79
2023/11/12 13:33:53;;;;;;;3.53;3.23;;;;;;;;;;5091117;28;20440;-79
2023/11/12 13:36:40;;;;;;;4.67;3.53;;;;;;;;;;5089880;28;20810;-79
2023/11/12 13:39:27;;;;;;;5.60;3.83;;;;;;;;;;5093253;28;20462;-79
2023/11/12 13:42:12;;;;;;;3.70;3.40;;;;;;;;;;5097591;28;20434;-79
2023/11/12 13:44:57;;;;;;;3.77;3.47;;;;;;;;;;5098904;28;20461;-79
2023/11/12 13:47:42;;;;;;;4.10;3.10;;;;;;;;;;5088591;28;20809;-79
2023/11/12 13:50:28;;;;;;;7.37;4.00;;;;;;;;;;5085904;28;20464;-79
2023/11/12 13:53:15;;;;;;;3.80;3.40;;;;;;;;;;5090722;28;20435;-79
2023/11/12 13:56:00;;;;;;;5.27;3.63;;;;;;;;;;5093558;28;20463;-79
2023/11/12 13:58:46;;;;;;;5.40;4.00;;;;;;;;;;5087895;28;20459;-79
2023/11/12 14:01:32;;;;;;;7.57;4.27;;;;;;;;;;5093003;28;20435;-79
2023/11/12 14:04:18;;;;;;;8.30;4.30;;;;;;;;;;5094944;28;20866;-79
2023/11/12 14:07:05;;;;;;;5.30;3.97;;;;;;;;;;5096723;28;20453;-79
2023/11/12 14:09:53;;;;;;;5.20;3.37;;;;;;;;;;5091146;28;20470;-79
2023/11/12 14:12:37;;;;;;;6.00;3.37;;;;;;;;;;5091076;28;21030;-79
2023/11/12 14:15:25;;;;;;;5.23;3.60;;;;;;;;;;5096519;28;20785;-79
2023/11/12 14:18:10;;;;;;;7.07;3.10;;;;;;;;;;5095397;28;20553;-79
2023/11/12 14:20:56;;;;;;;3.53;3.23;;;;;;;;;;5091746;28;20475;-79
2023/11/12 14:23:41;;;;;;;3.30;3.00;;;;;;;;;;5089780;28;20773;-79
2023/11/12 14:26:28;;;;;;;5.20;3.30;;;;;;;;;;5094871;28;20431;-79
2023/11/12 14:29:13;;;;;;;4.37;3.00;;;;;;;;;;5094209;28;20517;-79
2023/11/12 14:31:59;;;;;;;3.30;3.00;;;;;;;;;;5099314;28;20435;-79
2023/11/12 14:34:46;;;;;;;4.67;3.67;;;;;;;;;;5090128;28;20455;-79
2023/11/12 14:37:31;;;;;;;3.97;3.50;;;;;;;;;;5098342;28;20437;-79
2023/11/12 14:40:16;;;;;;;4.33;3.93;;;;;;;;;;5098474;28;20462;-79
2023/11/12 14:43:06;;;;;;;6.70;3.63;;;;;;;;;;5097588;28;20436;-79
2023/11/12 14:45:51;;;;;;;5.03;3.57;;;;;;;;;;5090587;28;20460;-79
2023/11/12 14:48:37;;;;;;;5.40;3.67;;;;;;;;;;5095481;28;20427;-79
2023/11/12 14:51:22;;;;;;;5.90;3.93;;;;;;;;;;5097418;28;20438;-79
2023/11/12 14:54:07;;;;;;;4.03;3.50;;;;;;;;;;5093141;28;20435;-79
2023/11/12 14:56:53;;;;;;;5.63;5.07;;;;;;;;;;5085742;28;20435;-79
2023/11/12 14:59:39;;;;;;;6.33;5.03;;;;;;;;;;5092602;28;20568;-80
2023/11/12 15:02:25;;;;;;;4.03;3.67;;;;;;;;;;5102493;28;20831;-79
2023/11/12 15:05:10;;;;;;;4.73;3.73;;;;;;;;;;5095696;28;20464;-79
2023/11/12 15:07:55;;;;;;;5.03;4.00;;;;;;;;;;5092407;28;20431;-79
2023/11/12 15:10:42;;;;;;;6.20;4.50;;;;;;;;;;5102811;28;20469;-79
2023/11/12 15:13:27;;;;;;;6.10;5.50;;;;;;;;;;5102409;28;20427;-79
2023/11/12 15:16:18;;;;;;;4.83;4.43;;;;;;;;;;5100274;28;20451;-79
2023/11/12 15:19:04;;;;;;;5.43;4.87;;;;;;;;;;5096844;28;20557;-79
2023/11/12 15:21:49;;;;;;;6.10;5.60;;;;;;;;;;5098849;28;20472;-79
2023/11/12 15:24:35;;;;;;;6.10;5.50;;;;;;;;;;5100390;28;20454;-79
2023/11/12 15:27:20;;;;;;;6.70;6.00;;;;;;;;;;5103575;28;20488;-79
2023/11/12 15:30:06;;;;;;;9.27;8.37;;;;;;;;;;5093092;28;20439;-79
2023/11/12 15:32:52;;;;;;;13.17;11.77;;;;;;;;;;5095525;28;20519;-79
2023/11/12 15:35:38;;;;;;;11.13;8.53;;;;;;;;;;5101489;28;20443;-79
2023/11/12 15:38:23;;;;;;;7.90;7.10;;;;;;;;;;5094341;28;20460;-79
2023/11/12 15:41:08;;;;;;;8.27;5.73;;;;;;;;;;5100915;28;20532;-79
2023/11/12 15:43:55;;;;;;;5.70;4.80;;;;;;;;;;5094684;28;20862;-79
2023/11/12 15:46:43;;;;;;;7.13;5.30;;;;;;;;;;5097916;28;20443;-79
2023/11/12 15:49:29;;;;;;;5.37;4.87;;;;;;;;;;5097885;28;20447;-79
2023/11/12 15:52:15;;;;;;;6.10;5.50;;;;;;;;;;5101429;28;20512;-79
2023/11/12 15:55:00;;;;;;;6.80;5.53;;;;;;;;;;5091104;28;20567;-79
2023/11/12 15:57:45;;;;;;;6.20;5.70;;;;;;;;;;5096435;28;20593;-79
2023/11/12 16:00:30;;;;;;;8.00;7.27;;;;;;;;;;5098337;28;20439;-79
2023/11/12 16:03:15;;;;;;;10.40;8.70;;;;;;;;;;5089462;28;20471;-79
2023/11/12 16:06:01;;;;;;;10.63;9.53;;;;;;;;;;5088291;28;20552;-78
2023/11/12 16:08:47;;;;;;;8.00;7.20;;;;;;;;;;5091562;28;20427;-78
2023/11/12 16:11:33;;;;;;;12.07;7.33;;;;;;;;;;5092201;28;20438;-78
2023/11/12 16:14:19;;;;;;;9.43;8.40;;;;;;;;;;5097153;28;20492;-79
2023/11/12 16:17:05;;;;;;;9.23;8.30;;;;;;;;;;5098884;28;20435;-79
2023/11/12 16:19:52;;;;;;;9.80;7.63;;;;;;;;;;5100246;28;20963;-79
2023/11/12 16:22:39;;;;;;;8.83;8.13;;;;;;;;;;5100293;28;20475;-78
2023/11/12 16:25:24;;;;;;;11.93;8.23;;;;;;;;;;5093959;28;20462;-79
2023/11/12 16:28:09;;;;;;;9.33;7.80;;;;;;;;;;5094157;28;20901;-79